| time (UTC) | temp C | wind direction | speed KPH | gust KPH | rain 1hr cm | rain 24hr cm | rain mn cm | humidity % | barometer mb |
| 20260510033025 | 25 | 111 | 1.6 | 4.8 | 0.00 | 0.05 | 0.05 | 84 | 1010.9 |
| 20260510031523 | 25 | 111 | 1.6 | 4.8 | 0.00 | 0.05 | 0.05 | 84 | 1010.8 |
| 20260510030025 | 25 | 111 | 1.6 | 4.8 | 0.00 | 0.05 | 0.05 | 84 | 1010.5 |
| 20260510024521 | 25 | 111 | 0.0 | 3.2 | 0.00 | 0.05 | 0.05 | 83 | 1010.2 |
| 20260510023019 | 26 | 111 | 0.0 | 3.2 | 0.00 | 0.05 | 0.05 | 82 | 1010.2 |
| 20260510021525 | 26 | 111 | 0.0 | 4.8 | 0.00 | 0.05 | 0.05 | 82 | 1010.0 |
| 20260510020019 | 26 | 111 | 1.6 | 4.8 | 0.00 | 0.05 | 0.05 | 81 | 1010.0 |
| 20260510014519 | 27 | 111 | 1.6 | 4.8 | 0.00 | 0.05 | 0.05 | 81 | 1009.7 |
| 20260510013017 | 27 | 111 | 3.2 | 6.4 | 0.00 | 0.05 | 0.05 | 80 | 1009.5 |
| 20260510011517 | 28 | 105 | 6.4 | 20.9 | 0.00 | 0.05 | 0.05 | 80 | 1009.4 |
| 20260510010116 | 28 | 78 | 14.5 | 24.1 | 0.00 | 0.05 | 0.05 | 82 | 1009.2 |
| 20260510004516 | 28 | 76 | 4.8 | 11.3 | 0.00 | 0.05 | 0.05 | 81 | 1009.2 |
| 20260510003016 | 29 | 73 | 6.4 | 12.9 | 0.00 | 0.05 | 0.05 | 79 | 1009.1 |
| 20260510001515 | 29 | 94 | 6.4 | 12.9 | 0.00 | 0.05 | 0.05 | 77 | 1009.0 |
| 20260510000114 | 29 | 84 | 6.4 | 12.9 | 0.00 | 0.05 | 0.05 | 77 | 1008.9 |
| 20260509234528 | 29 | 63 | 6.4 | 9.7 | 0.00 | 0.05 | 0.05 | 76 | 1008.6 |
| 20260509233013 | 29 | 26 | 3.2 | 8.0 | 0.00 | 0.05 | 0.05 | 76 | 1008.6 |
| 20260509231516 | 29 | 63 | 3.2 | 14.5 | 0.00 | 0.05 | 0.05 | 76 | 1008.6 |
| 20260509230012 | 30 | 41 | 6.4 | 17.7 | 0.00 | 0.05 | 0.05 | 75 | 1008.4 |
| 20260509224526 | 31 | 344 | 0.0 | 8.0 | 0.00 | 0.05 | 0.05 | 73 | 1008.4 |
| 20260509223010 | 32 | 295 | 3.2 | 6.4 | 0.00 | 0.05 | 0.05 | 71 | 1008.5 |
| 20260509221510 | 32 | 198 | 1.6 | 8.0 | 0.00 | 0.05 | 0.05 | 70 | 1008.3 |
| 20260509220009 | 32 | 302 | 4.8 | 16.1 | 0.00 | 0.05 | 0.05 | 70 | 1008.3 |
| 20260509214508 | 32 | 240 | 9.7 | 16.1 | 0.00 | 0.05 | 0.05 | 70 | 1008.2 |
| 20260509213006 | 32 | 261 | 6.4 | 16.1 | 0.00 | 0.05 | 0.05 | 71 | 1008.3 |
| 20260509211503 | 32 | 284 | 6.4 | 12.9 | 0.00 | 0.05 | 0.05 | 70 | 1008.8 |
| 20260509210104 | 32 | 226 | 3.2 | 6.4 | 0.00 | 0.05 | 0.05 | 72 | 1009.2 |
| 20260509204606 | 32 | 240 | 3.2 | 14.5 | 0.00 | 0.05 | 0.05 | 73 | 1009.2 |
| 20260509203101 | 31 | 211 | 3.2 | 11.3 | 0.00 | 0.05 | 0.05 | 74 | 1009.4 |
| 20260509201552 | 31 | 215 | 3.2 | 12.9 | 0.00 | 0.05 | 0.05 | 73 | 1009.8 |
| 20260509200050 | 31 | 246 | 8.0 | 16.1 | 0.00 | 0.05 | 0.05 | 73 | 1009.9 |
| 20260509194546 | 31 | 261 | 6.4 | 16.1 | 0.00 | 0.05 | 0.05 | 75 | 1010.0 |
| 20260509193045 | 31 | 249 | 8.0 | 16.1 | 0.00 | 0.05 | 0.05 | 76 | 1010.3 |
| 20260509191545 | 30 | 288 | 9.7 | 16.1 | 0.00 | 0.05 | 0.05 | 77 | 1010.7 |
| 20260509190041 | 30 | 296 | 3.2 | 11.3 | 0.00 | 0.05 | 0.05 | 79 | 1010.7 |
| 20260509184641 | 30 | 209 | 4.8 | 11.3 | 0.00 | 0.05 | 0.05 | 79 | 1011.0 |
| 20260509183038 | 29 | 281 | 1.6 | 8.0 | 0.00 | 0.05 | 0.05 | 82 | 1011.1 |
| 20260509181535 | 29 | 321 | 4.8 | 12.9 | 0.00 | 0.05 | 0.05 | 83 | 1011.3 |
| 20260509180053 | 28 | 319 | 3.2 | 14.5 | 0.00 | 0.05 | 0.05 | 85 | 1011.5 |
| 20260509174531 | 28 | 276 | 3.2 | 11.3 | 0.00 | 0.05 | 0.05 | 87 | 1011.5 |
| 20260509173032 | 28 | 292 | 6.4 | 14.5 | 0.00 | 0.05 | 0.05 | 88 | 1011.8 |
| 20260509171527 | 27 | 232 | 6.4 | 16.1 | 0.00 | 0.05 | 0.05 | 88 | 1011.9 |
| 20260509170039 | 27 | 230 | 6.4 | 12.9 | 0.00 | 0.05 | 0.05 | 90 | 1012.0 |
| 20260509164518 | 26 | 252 | 4.8 | 17.7 | 0.00 | 0.05 | 0.05 | 92 | 1012.0 |
| 20260509163023 | 26 | 261 | 4.8 | 14.5 | 0.00 | 0.05 | 0.05 | 95 | 1012.0 |
| 20260509161511 | 25 | 221 | 6.4 | 12.9 | 0.00 | 0.05 | 0.05 | 98 | 1011.9 |
| 20260509160008 | 24 | 163 | 4.8 | 9.7 | 0.00 | 0.05 | 0.05 | 100 | 1011.9 |
| 20260509154508 | 23 | 259 | 6.4 | 12.9 | 0.00 | 0.05 | 0.05 | 100 | 1011.9 |
| 20260509153003 | 23 | 217 | 3.2 | 6.4 | 0.00 | 0.05 | 0.05 | 100 | 1011.9 |
| 20260509151502 | 23 | 303 | 0.0 | 0.0 | 0.00 | 0.05 | 0.05 | 100 | 1012.0 |
| 20260509150002 | 23 | 305 | 0.0 | 6.4 | 0.00 | 0.05 | 0.05 | 100 | 1012.0 |
| 20260509144602 | 23 | 290 | 1.6 | 4.8 | 0.00 | 0.05 | 0.05 | 100 | 1012.0 |
| 20260509144501 | 23 | 290 | 1.6 | 4.8 | 0.00 | 0.05 | 0.05 | 100 | 1012.1 |
| 20260509143108 | 23 | 197 | 1.6 | 4.8 | 0.00 | 0.05 | 0.05 | 100 | 1012.3 |
| 20260509141559 | 23 | 191 | 1.6 | 9.7 | 0.00 | 0.05 | 0.05 | 100 | 1011.9 |
| 20260509140058 | 23 | 156 | 1.6 | 4.8 | 0.00 | 0.05 | 0.05 | 100 | 1011.6 |
| 20260509134557 | 23 | 5 | 3.2 | 6.4 | 0.00 | 0.05 | 0.05 | 100 | 1011.6 |
| 20260509133106 | 23 | 98 | 4.8 | 12.9 | 0.00 | 0.05 | 0.05 | 100 | 1011.2 |
| 20260509131554 | 22 | 141 | 0.0 | 4.8 | 0.03 | 0.05 | 0.05 | 100 | 1011.1 |
| 20260509130052 | 22 | 116 | 0.0 | 4.8 | 0.05 | 0.05 | 0.05 | 100 | 1011.4 |
| 20260509124550 | 22 | 100 | 0.0 | 3.2 | 0.05 | 0.05 | 0.05 | 100 | 1011.7 |
| 20260509121552 | 22 | 19 | 1.6 | 9.7 | 0.03 | 0.03 | 0.03 | 100 | 1012.4 |
| 20260509120048 | 22 | 41 | 1.6 | 8.0 | 0.00 | 0.00 | 0.00 | 100 | 1012.3 |
| 20260509114549 | 22 | 40 | 3.2 | 16.1 | 0.00 | 0.00 | 0.00 | 100 | 1012.1 |
| 20260509113044 | 22 | 30 | 1.6 | 12.9 | 0.00 | 0.00 | 0.00 | 100 | 1011.8 |
| 20260509111543 | 22 | 68 | 0.0 | 4.8 | 0.00 | 0.00 | 0.00 | 100 | 1011.2 |
| 20260509110045 | 22 | 68 | 0.0 | 4.8 | 0.00 | 0.00 | 0.00 | 100 | 1010.7 |
| 20260509104559 | 22 | 77 | 1.6 | 4.8 | 0.00 | 0.00 | 0.00 | 100 | 1010.9 |
| 20260509103042 | 22 | 61 | 1.6 | 4.8 | 0.00 | 0.00 | 0.00 | 100 | 1011.2 |
| 20260509101540 | 22 | 50 | 0.0 | 6.4 | 0.00 | 0.00 | 0.00 | 100 | 1011.3 |
| 20260509100040 | 22 | 30 | 0.0 | 4.8 | 0.00 | 0.00 | 0.00 | 100 | 1011.3 |
| 20260509094539 | 22 | 32 | 0.0 | 6.4 | 0.00 | 0.00 | 0.00 | 100 | 1011.3 |
| 20260509093040 | 22 | 71 | 1.6 | 6.4 | 0.00 | 0.00 | 0.00 | 100 | 1010.8 |
| 20260509091543 | 22 | 78 | 3.2 | 6.4 | 0.00 | 0.00 | 0.00 | 100 | 1010.9 |
| 20260509090049 | 22 | 80 | 4.8 | 12.9 | 0.00 | 0.00 | 0.00 | 100 | 1010.2 |
| 20260509084537 | 22 | 146 | 0.0 | 0.0 | 0.00 | 0.00 | 0.00 | 100 | 1010.5 |
| 20260509083035 | 22 | 145 | 0.0 | 3.2 | 0.00 | 0.00 | 0.00 | 100 | 1011.0 |
| 20260509081547 | 22 | 153 | 0.0 | 3.2 | 0.00 | 0.00 | 0.00 | 100 | 1010.4 |
| 20260509080035 | 22 | 150 | 0.0 | 8.0 | 0.00 | 0.00 | 0.00 | 100 | 1010.7 |
| 20260509074532 | 22 | 171 | 0.0 | 0.0 | 0.00 | 0.00 | 0.00 | 100 | 1010.7 |
| 20260509073043 | 22 | 171 | 0.0 | 1.6 | 0.00 | 0.00 | 0.00 | 100 | 1010.6 |
| 20260509071539 | 23 | 171 | 0.0 | 1.6 | 0.00 | 0.00 | 0.00 | 100 | 1010.9 |
| 20260509070040 | 22 | 165 | 3.2 | 16.1 | 0.00 | 0.00 | 0.00 | 100 | 1011.1 |
| 20260509064532 | 23 | 163 | 0.0 | 4.8 | 0.00 | 0.00 | 0.00 | 100 | 1010.9 |
| 20260509063053 | 22 | 155 | 0.0 | 8.0 | 0.00 | 0.00 | 0.00 | 99 | 1010.7 |
| 20260509061541 | 22 | 146 | 0.0 | 8.0 | 0.00 | 0.00 | 0.00 | 99 | 1011.0 |
| 20260509060040 | 22 | 146 | 0.0 | 8.0 | 0.00 | 0.00 | 0.00 | 99 | 1011.1 |
| 20260509054523 | 23 | 179 | 1.6 | 8.0 | 0.00 | 0.00 | 0.00 | 98 | 1011.3 |
| 20260509053023 | 23 | 159 | 0.0 | 8.0 | 0.00 | 0.00 | 0.00 | 98 | 1011.6 |
| 20260509050018 | 23 | 136 | 0.0 | 1.6 | 0.00 | 0.00 | 0.00 | 98 | 1011.5 |
| 20260509044521 | 23 | 136 | 0.0 | 3.2 | 0.00 | 0.00 | 0.00 | 98 | 1011.4 |
| 20260509043017 | 23 | 135 | 1.6 | 4.8 | 0.00 | 0.00 | 0.00 | 97 | 1011.1 |
| 20260509041517 | 23 | 134 | 1.6 | 4.8 | 0.00 | 0.00 | 0.00 | 97 | 1011.0 |
| 20260509040018 | 23 | 131 | 3.2 | 4.8 | 0.00 | 0.00 | 0.00 | 97 | 1011.1 |
| 20260509034515 | 23 | 128 | 0.0 | 3.2 | 0.00 | 0.00 | 0.00 | 97 | 1011.2 |